Time;durP1;ratioP1;P1;durP2;ratioP2;P2;SDS_P1;SDS_P2;PMS_P1;PMS_P2;Temp;Humidity;BMP_temperature;BMP_pressure;BME280_temperature;BME280_humidity;BME280_pressure;Samples;Min_cycle;Max_cycle;Signal;HPM_P1;HPM_P2
2022/06/29 00:01:15;;;;;;;;;;;;;;;26.59;44.95;100890.02;105183;1300;61298;-82
2022/06/29 00:03:40;;;;;;;;;;;;;;;26.58;44.96;100892.75;105125;1303;61278;-82
2022/06/29 00:06:05;;;;;;;;;;;;;;;26.58;44.93;100892.77;105323;1301;61256;-82
2022/06/29 00:08:31;;;;;;;;;;;;;;;26.58;44.94;100892.27;105273;1301;61350;-82
2022/06/29 00:10:57;;;;;;;;;;;;;;;26.58;45.10;100894.97;105179;1302;61300;-82
2022/06/29 00:13:23;;;;;;;;;;;;;;;26.57;44.98;100899.69;105161;1302;61230;-82
2022/06/29 00:15:48;;;;;;;;;;;;;;;26.57;45.00;100895.05;105188;1303;61204;-82
2022/06/29 00:18:13;;;;;;;;;;;;;;;26.57;45.13;100895.77;105159;1303;61313;-82
2022/06/29 00:20:39;;;;;;;;;;;;;;;26.57;44.85;100895.05;105192;1303;73804;-82
2022/06/29 00:23:04;;;;;;;;;;;;;;;26.56;45.15;100891.34;105190;1301;61265;-82
2022/06/29 00:25:30;;;;;;;;;;;;;;;26.56;45.07;100887.91;105253;1303;61304;-83
2022/06/29 00:27:55;;;;;;;;;;;;;;;26.56;45.05;100890.82;105282;1302;61269;-83
2022/06/29 00:30:21;;;;;;;;;;;;;;;26.55;44.94;100887.61;105215;1302;61905;-83
2022/06/29 00:32:46;;;;;;;;;;;;;;;26.55;44.98;100884.73;105255;1302;61718;-83
2022/06/29 00:35:11;;;;;;;;;;;;;;;26.55;45.22;100884.39;105183;1303;61384;-82
2022/06/29 00:37:38;;;;;;;;;;;;;;;26.55;44.94;100884.60;105176;1302;61270;-82
2022/06/29 00:40:03;;;;;;;;;;;;;;;26.55;45.10;100883.54;105120;1303;62467;-82
2022/06/29 00:42:30;;;;;;;;;;;;;;;26.54;45.20;100880.70;105140;1303;61272;-82
2022/06/29 00:44:55;;;;;;;;;;;;;;;26.54;45.20;100880.33;105169;1303;61279;-83
2022/06/29 00:47:22;;;;;;;;;;;;;;;26.54;45.19;100878.56;105148;1302;61254;-83
2022/06/29 00:49:48;;;;;;;;;;;;;;;26.54;45.16;100877.67;105172;1302;61235;-82
2022/06/29 00:52:14;;;;;;;;;;;;;;;26.54;44.93;100878.93;105282;1302;61272;-82
2022/06/29 00:54:43;;;;;;;;;;;;;;;26.53;45.08;100881.32;105174;1301;61287;-83
2022/06/29 00:57:11;;;;;;;;;;;;;;;26.53;45.08;100877.53;105160;1303;75981;-82
2022/06/29 00:59:42;;;;;;;;;;;;;;;26.53;45.12;100875.23;105227;1300;61417;-82
2022/06/29 01:02:08;;;;;;;;;;;;;;;26.53;45.09;100873.05;105293;1303;61171;-83
2022/06/29 01:04:33;;;;;;;;;;;;;;;26.52;45.12;100873.84;105245;1301;61365;-83
2022/06/29 01:06:59;;;;;;;;;;;;;;;26.52;45.23;100871.36;105249;1303;61237;-83
2022/06/29 01:09:25;;;;;;;;;;;;;;;26.52;44.94;100870.08;105194;1302;61276;-83
2022/06/29 01:11:50;;;;;;;;;;;;;;;26.52;45.16;100869.39;105170;1303;61253;-82
2022/06/29 01:14:16;;;;;;;;;;;;;;;26.52;45.09;100873.52;105289;1301;61284;-82
2022/06/29 01:16:41;;;;;;;;;;;;;;;26.52;45.16;100881.64;105147;1303;61448;-82
2022/06/29 01:19:07;;;;;;;;;;;;;;;26.51;45.39;100875.74;105271;1303;61266;-82
2022/06/29 01:21:32;;;;;;;;;;;;;;;26.51;44.93;100873.63;105291;1303;61293;-82
2022/06/29 01:23:58;;;;;;;;;;;;;;;26.51;45.13;100870.55;105229;1301;61327;-82
2022/06/29 01:26:23;;;;;;;;;;;;;;;26.50;45.00;100865.23;105285;1302;61275;-82
2022/06/29 01:28:49;;;;;;;;;;;;;;;26.50;44.97;100865.23;105156;1301;61365;-82
2022/06/29 01:31:17;;;;;;;;;;;;;;;26.49;45.09;100863.46;105190;1303;61301;-82
2022/06/29 01:33:44;;;;;;;;;;;;;;;26.50;45.04;100867.05;105245;1302;61248;-82
2022/06/29 01:36:09;;;;;;;;;;;;;;;26.49;45.02;100866.97;105173;1302;62048;-82
2022/06/29 01:38:35;;;;;;;;;;;;;;;26.49;45.07;100868.77;105169;1303;61394;-82
2022/06/29 01:41:01;;;;;;;;;;;;;;;26.48;45.18;100873.83;105174;1302;61203;-83
2022/06/29 01:43:26;;;;;;;;;;;;;;;26.48;45.03;100871.70;105256;1302;61246;-82
2022/06/29 01:45:52;;;;;;;;;;;;;;;26.48;45.20;100873.52;105226;1303;61231;-82
2022/06/29 01:48:17;;;;;;;;;;;;;;;26.48;45.11;100866.88;105119;1303;63204;-82
2022/06/29 01:50:43;;;;;;;;;;;;;;;26.47;45.29;100866.71;105156;1301;61321;-82
2022/06/29 01:53:08;;;;;;;;;;;;;;;26.47;45.11;100871.58;105254;1303;62080;-82
2022/06/29 01:55:33;;;;;;;;;;;;;;;26.47;45.03;100870.33;105194;1303;61365;-82
2022/06/29 01:57:59;;;;;;;;;;;;;;;26.47;45.39;100874.17;105235;1303;61301;-82
2022/06/29 02:00:25;;;;;;;;;;;;;;;26.46;45.19;100883.04;105260;1303;61278;-82
2022/06/29 02:02:50;;;;;;;;;;;;;;;26.46;45.06;100882.32;105171;1302;61290;-82
2022/06/29 02:05:16;;;;;;;;;;;;;;;26.46;45.20;100882.20;105165;1301;61297;-82
2022/06/29 02:07:42;;;;;;;;;;;;;;;26.46;45.22;100882.59;105199;1302;61181;-82
2022/06/29 02:10:08;;;;;;;;;;;;;;;26.45;45.35;100883.15;105190;1302;61338;-82
2022/06/29 02:12:33;;;;;;;;;;;;;;;26.45;45.07;100881.73;105170;1302;61407;-82
2022/06/29 02:14:59;;;;;;;;;;;;;;;26.44;45.55;100883.95;105248;1300;61274;-82
2022/06/29 02:17:24;;;;;;;;;;;;;;;26.45;45.31;100884.49;105177;1303;61399;-83
2022/06/29 02:19:50;;;;;;;;;;;;;;;26.44;45.41;100883.23;105245;1302;61252;-83
2022/06/29 02:22:15;;;;;;;;;;;;;;;26.44;45.24;100884.54;105262;1303;61244;-82
2022/06/29 02:24:41;;;;;;;;;;;;;;;26.44;45.55;100886.34;105218;1301;61243;-82
2022/06/29 02:27:06;;;;;;;;;;;;;;;26.44;45.47;100890.14;105248;1303;61345;-82
2022/06/29 02:29:31;;;;;;;;;;;;;;;26.43;45.30;100886.80;105254;1300;61278;-82
2022/06/29 02:34:44;;;;;;;;;;;;;;;26.42;45.57;100884.69;105259;1302;61268;-82
2022/06/29 02:37:10;;;;;;;;;;;;;;;26.42;45.35;100883.25;105272;1300;72596;-81
2022/06/29 02:39:35;;;;;;;;;;;;;;;26.41;45.39;100883.66;105119;1301;61125;-81
2022/06/29 02:42:00;;;;;;;;;;;;;;;26.42;45.25;100884.34;104936;1303;61279;-81
2022/06/29 02:44:26;;;;;;;;;;;;;;;26.41;45.15;100887.45;105282;1301;61272;-81
2022/06/29 02:46:51;;;;;;;;;;;;;;;26.42;45.38;100883.63;105211;1303;61962;-81
2022/06/29 02:49:18;;;;;;;;;;;;;;;26.41;45.44;100882.38;105168;1303;73770;-82
2022/06/29 02:51:43;;;;;;;;;;;;;;;26.41;45.47;100883.13;105206;1301;61253;-81
2022/06/29 02:54:09;;;;;;;;;;;;;;;26.42;45.27;100879.84;105277;1301;61233;-81
2022/06/29 02:56:35;;;;;;;;;;;;;;;26.41;45.45;100884.58;105245;1301;61272;-81
2022/06/29 02:59:00;;;;;;;;;;;;;;;26.41;45.68;100890.69;105161;1303;61227;-81
2022/06/29 03:01:26;;;;;;;;;;;;;;;26.41;45.38;100886.96;105200;1302;61203;-81
2022/06/29 03:03:51;;;;;;;;;;;;;;;26.41;45.55;100891.27;105137;1303;61326;-81
2022/06/29 03:06:17;;;;;;;;;;;;;;;26.41;45.48;100888.94;105129;1302;61407;-81
2022/06/29 03:08:42;;;;;;;;;;;;;;;26.41;45.48;100885.35;105150;1302;61351;-81
2022/06/29 03:11:07;;;;;;;;;;;;;;;26.41;45.56;100889.81;104889;1302;61343;-81
2022/06/29 03:13:33;;;;;;;;;;;;;;;26.41;45.59;100893.60;105154;1303;61260;-81
2022/06/29 03:15:58;;;;;;;;;;;;;;;26.41;45.49;100891.47;105153;1303;61356;-81
2022/06/29 03:18:24;;;;;;;;;;;;;;;26.41;45.47;100892.55;105182;1302;60460;-81
2022/06/29 03:20:49;;;;;;;;;;;;;;;26.41;45.47;100899.22;105233;1301;61256;-81
2022/06/29 03:23:15;;;;;;;;;;;;;;;26.41;45.62;100908.25;105104;1303;61738;-81
2022/06/29 03:25:41;;;;;;;;;;;;;;;26.41;45.53;100902.09;105261;1302;61246;-81
2022/06/29 03:28:07;;;;;;;;;;;;;;;26.41;45.46;100897.23;105253;1303;74748;-82
2022/06/29 03:30:32;;;;;;;;;;;;;;;26.41;45.51;100897.39;105132;1303;61275;-83
2022/06/29 03:32:58;;;;;;;;;;;;;;;26.41;45.51;100900.10;105157;1302;61361;-81
2022/06/29 03:35:23;;;;;;;;;;;;;;;26.41;45.40;100897.39;104964;1303;61231;-82
2022/06/29 03:37:50;;;;;;;;;;;;;;;26.41;45.55;100900.45;105014;1303;61268;-82
2022/06/29 03:40:16;;;;;;;;;;;;;;;26.42;45.63;100907.66;105145;1303;75659;-82
2022/06/29 03:42:42;;;;;;;;;;;;;;;26.42;45.50;100900.79;105125;1303;61368;-82
2022/06/29 03:45:07;;;;;;;;;;;;;;;26.41;45.57;100891.78;105241;1302;61407;-82
2022/06/29 03:47:33;;;;;;;;;;;;;;;26.42;45.41;100895.52;105122;1302;60016;-82
2022/06/29 03:49:58;;;;;;;;;;;;;;;26.41;45.62;100898.84;105171;1303;61281;-82
2022/06/29 03:52:24;;;;;;;;;;;;;;;26.41;45.43;100904.09;105157;1303;75492;-81
2022/06/29 03:54:50;;;;;;;;;;;;;;;26.40;45.59;100901.67;105171;1301;61364;-81
2022/06/29 03:57:15;;;;;;;;;;;;;;;26.40;45.47;100902.95;104914;1302;61309;-81
2022/06/29 03:59:41;;;;;;;;;;;;;;;26.39;45.61;100902.10;104892;1302;61253;-81
2022/06/29 04:02:06;;;;;;;;;;;;;;;26.39;45.67;100901.73;104940;1302;61373;-81
2022/06/29 04:04:31;;;;;;;;;;;;;;;26.39;45.49;100904.61;104868;1302;74794;-81
2022/06/29 04:06:57;;;;;;;;;;;;;;;26.39;45.59;100907.34;105139;1301;61705;-81
2022/06/29 04:09:22;;;;;;;;;;;;;;;26.40;45.41;100910.02;104895;1302;61264;-81
2022/06/29 04:11:54;;;;;;;;;;;;;;;26.40;45.81;100918.45;105145;1302;61249;-82
2022/06/29 04:14:20;;;;;;;;;;;;;;;26.40;45.75;100927.30;104878;1303;73919;-82
2022/06/29 04:16:45;;;;;;;;;;;;;;;26.40;45.91;100942.24;104888;1300;59299;-81
2022/06/29 04:19:11;;;;;;;;;;;;;;;26.40;45.84;100932.30;105133;1302;61248;-81
2022/06/29 04:21:37;;;;;;;;;;;;;;;26.41;45.71;100928.63;104908;1302;61301;-82
2022/06/29 04:24:02;;;;;;;;;;;;;;;26.41;45.99;100926.66;105166;1302;61397;-82
2022/06/29 04:26:28;;;;;;;;;;;;;;;26.41;45.85;100923.04;105178;1302;61271;-82
2022/06/29 04:28:53;;;;;;;;;;;;;;;26.41;46.16;100922.30;104851;1302;61178;-82
2022/06/29 04:31:19;;;;;;;;;;;;;;;26.41;45.86;100918.64;104958;1301;61253;-82
2022/06/29 04:33:44;;;;;;;;;;;;;;;26.42;45.76;100919.68;105133;1302;61120;-82
2022/06/29 04:36:10;;;;;;;;;;;;;;;26.43;45.87;100923.96;104876;1302;61317;-82
2022/06/29 04:38:36;;;;;;;;;;;;;;;26.43;45.76;100932.76;104977;1302;61233;-82
2022/06/29 04:41:01;;;;;;;;;;;;;;;26.45;45.79;100934.30;104899;1302;61224;-82
2022/06/29 04:43:27;;;;;;;;;;;;;;;26.45;45.98;100930.68;105159;1302;61244;-81
2022/06/29 04:48:37;;;;;;;;;;;;;;;26.46;45.94;100924.76;104846;1302;74550;-82
2022/06/29 04:51:02;;;;;;;;;;;;;;;26.48;45.91;100926.20;104882;1301;61271;-82
2022/06/29 04:53:28;;;;;;;;;;;;;;;26.50;45.83;100933.98;104951;1302;61982;-81
2022/06/29 04:55:53;;;;;;;;;;;;;;;26.51;45.90;100937.14;104915;1301;61392;-81
2022/06/29 04:58:19;;;;;;;;;;;;;;;26.52;45.68;100940.29;104918;1302;61371;-81
2022/06/29 05:00:44;;;;;;;;;;;;;;;26.52;45.91;100941.69;104963;1303;61379;-81
2022/06/29 05:03:10;;;;;;;;;;;;;;;26.53;45.88;100941.99;105197;1301;61290;-82
2022/06/29 05:05:35;;;;;;;;;;;;;;;26.53;45.98;100938.50;105174;1302;61275;-81
2022/06/29 05:08:01;;;;;;;;;;;;;;;26.54;45.82;100939.37;105140;1300;61296;-82
2022/06/29 05:10:26;;;;;;;;;;;;;;;26.54;45.82;100941.56;104922;1302;61441;-82
2022/06/29 05:12:51;;;;;;;;;;;;;;;26.54;45.64;100937.38;104882;1302;61400;-82
2022/06/29 05:15:17;;;;;;;;;;;;;;;26.54;45.78;100937.03;105151;1302;61403;-81
2022/06/29 05:17:42;;;;;;;;;;;;;;;26.54;45.83;100933.21;105156;1302;61232;-81
2022/06/29 05:20:08;;;;;;;;;;;;;;;26.54;45.84;100931.38;104904;1301;61362;-81
2022/06/29 05:22:34;;;;;;;;;;;;;;;26.54;45.63;100932.84;104916;1303;61275;-81
2022/06/29 05:24:59;;;;;;;;;;;;;;;26.54;45.73;100934.42;105143;1302;75785;-81
2022/06/29 05:27:25;;;;;;;;;;;;;;;26.54;45.63;100933.89;104897;1303;59243;-81
2022/06/29 05:29:50;;;;;;;;;;;;;;;26.55;45.79;100932.95;104958;1302;61224;-81
2022/06/29 05:32:16;;;;;;;;;;;;;;;26.55;45.90;100928.82;105124;1302;61369;-81
2022/06/29 05:34:41;;;;;;;;;;;;;;;26.55;45.64;100927.70;104921;1302;61384;-81
2022/06/29 05:37:07;;;;;;;;;;;;;;;26.56;45.55;100927.44;104921;1302;74659;-81
2022/06/29 05:39:32;;;;;;;;;;;;;;;26.57;45.55;100926.23;104928;1302;61304;-81
2022/06/29 05:41:58;;;;;;;;;;;;;;;26.58;45.53;100923.27;105163;1302;61352;-81
2022/06/29 05:44:23;;;;;;;;;;;;;;;26.58;45.62;100919.82;105148;1302;61278;-83
2022/06/29 05:46:49;;;;;;;;;;;;;;;26.59;45.58;100915.80;105120;1302;61266;-82
2022/06/29 05:49:14;;;;;;;;;;;;;;;26.60;45.50;100918.05;104949;1302;75862;-82
2022/06/29 05:51:40;;;;;;;;;;;;;;;26.60;45.43;100916.44;104924;1302;61287;-82
2022/06/29 05:54:05;;;;;;;;;;;;;;;26.59;45.55;100915.03;104947;1302;61362;-82
2022/06/29 05:56:30;;;;;;;;;;;;;;;26.59;45.55;100917.71;105147;1301;61270;-82
2022/06/29 05:58:56;;;;;;;;;;;;;;;26.60;45.44;100924.49;104932;1302;61383;-81
2022/06/29 06:01:21;;;;;;;;;;;;;;;26.58;45.49;100923.12;105161;1302;61141;-81
2022/06/29 06:03:47;;;;;;;;;;;;;;;26.57;45.57;100927.17;105110;1302;61266;-81
2022/06/29 06:06:12;;;;;;;;;;;;;;;26.58;45.73;100929.42;104897;1302;61349;-82
2022/06/29 06:08:38;;;;;;;;;;;;;;;26.58;45.64;100923.06;104897;1302;61275;-82
2022/06/29 06:11:04;;;;;;;;;;;;;;;26.58;45.53;100922.36;105181;1301;61304;-82
2022/06/29 06:13:29;;;;;;;;;;;;;;;26.60;45.55;100919.30;104988;1302;73644;-81
2022/06/29 06:15:55;;;;;;;;;;;;;;;26.62;45.39;100914.45;104998;1302;61316;-82
2022/06/29 06:18:20;;;;;;;;;;;;;;;26.63;45.45;100918.55;105101;1302;61268;-81
2022/06/29 06:20:46;;;;;;;;;;;;;;;26.63;45.41;100917.99;104766;1302;61377;-81
2022/06/29 06:23:11;;;;;;;;;;;;;;;26.64;45.51;100916.41;104838;1302;61243;-82
2022/06/29 06:25:37;;;;;;;;;;;;;;;26.66;45.41;100918.12;104976;1302;72739;-83
2022/06/29 06:28:02;;;;;;;;;;;;;;;26.67;45.46;100918.81;104471;1300;909007;-81
2022/06/29 06:30:28;;;;;;;;;;;;;;;26.69;45.43;100916.51;105151;1302;61235;-81
2022/06/29 06:32:54;;;;;;;;;;;;;;;26.70;45.15;100915.92;104977;1302;61910;-81
2022/06/29 06:35:19;;;;;;;;;;;;;;;26.70;45.56;100915.12;105131;1302;61266;-81
2022/06/29 06:37:46;;;;;;;;;;;;;;;26.70;45.47;100915.64;105156;1302;61351;-81
2022/06/29 06:42:56;;;;;;;;;;;;;;;26.71;45.25;100917.23;105132;1302;61129;-81
2022/06/29 06:45:21;;;;;;;;;;;;;;;26.71;44.90;100913.10;104843;1302;61254;-81
2022/06/29 06:47:47;;;;;;;;;;;;;;;26.71;44.98;100912.92;104771;1302;62609;-81
2022/06/29 06:50:13;;;;;;;;;;;;;;;26.72;44.99;100910.31;104904;1302;61359;-81
2022/06/29 06:52:38;;;;;;;;;;;;;;;26.73;44.73;100909.06;104956;1302;61194;-82
2022/06/29 06:55:04;;;;;;;;;;;;;;;26.75;44.87;100906.77;104753;1302;61483;-82
2022/06/29 06:57:29;;;;;;;;;;;;;;;26.76;44.66;100902.13;104895;1301;61163;-81
2022/06/29 06:59:55;;;;;;;;;;;;;;;26.78;44.69;100899.48;104896;1302;61342;-81
2022/06/29 07:02:20;;;;;;;;;;;;;;;26.79;44.62;100892.33;104781;1302;61371;-82
2022/06/29 07:04:46;;;;;;;;;;;;;;;26.80;44.58;100894.20;105141;1302;61247;-83
2022/06/29 07:07:13;;;;;;;;;;;;;;;26.80;44.68;100884.80;104987;1301;59697;-82
2022/06/29 07:09:39;;;;;;;;;;;;;;;26.81;44.47;100886.92;105030;1303;61287;-82
2022/06/29 07:12:04;;;;;;;;;;;;;;;26.81;44.54;100881.42;104912;1302;61370;-83
2022/06/29 07:14:30;;;;;;;;;;;;;;;26.82;44.45;100882.62;105020;1302;61401;-83
2022/06/29 07:16:56;;;;;;;;;;;;;;;26.83;44.33;100886.89;104952;1302;61275;-82
2022/06/29 07:19:22;;;;;;;;;;;;;;;26.83;44.37;100883.81;104955;1302;61293;-83
2022/06/29 07:21:47;;;;;;;;;;;;;;;26.84;44.36;100882.64;105032;1302;62430;-82
2022/06/29 07:24:12;;;;;;;;;;;;;;;26.84;44.31;100884.23;105168;1302;61384;-82
2022/06/29 07:26:38;;;;;;;;;;;;;;;26.85;43.89;100885.19;105172;1302;61409;-82
2022/06/29 07:29:03;;;;;;;;;;;;;;;26.86;43.95;100885.88;104825;1303;61300;-83
2022/06/29 07:31:29;;;;;;;;;;;;;;;26.86;44.05;100885.50;104904;1302;61250;-83
2022/06/29 07:33:54;;;;;;;;;;;;;;;26.86;43.85;100882.23;104900;1302;61281;-82
2022/06/29 07:36:20;;;;;;;;;;;;;;;26.86;44.19;100886.35;105057;1301;61284;-82
2022/06/29 07:38:45;;;;;;;;;;;;;;;26.87;44.06;100888.09;104884;1302;61357;-82
2022/06/29 07:41:11;;;;;;;;;;;;;;;26.88;44.19;100888.05;104940;1303;61278;-81
2022/06/29 07:43:37;;;;;;;;;;;;;;;26.88;43.81;100884.07;105163;1302;61278;-81
2022/06/29 07:46:02;;;;;;;;;;;;;;;26.88;44.04;100883.13;105043;1302;61229;-81
2022/06/29 07:48:28;;;;;;;;;;;;;;;26.88;44.16;100885.96;105116;1303;61292;-81
2022/06/29 07:50:54;;;;;;;;;;;;;;;26.89;43.89;100884.48;105099;1302;61259;-81
2022/06/29 07:53:20;;;;;;;;;;;;;;;26.89;43.78;100882.86;104986;1302;61272;-81
2022/06/29 07:55:45;;;;;;;;;;;;;;;26.89;44.24;100884.14;104828;1302;73833;-81
2022/06/29 07:58:12;;;;;;;;;;;;;;;26.90;43.98;100886.40;105080;1302;61758;-81
2022/06/29 08:00:38;;;;;;;;;;;;;;;26.90;44.25;100889.83;104977;1302;59512;-81
2022/06/29 08:03:03;;;;;;;;;;;;;;;26.90;44.22;100889.59;104942;1302;61284;-81
2022/06/29 08:05:29;;;;;;;;;;;;;;;26.91;44.08;100891.67;104992;1301;60160;-81
2022/06/29 08:07:54;;;;;;;;;;;;;;;26.91;44.25;100887.91;105175;1302;61362;-81
2022/06/29 08:10:20;;;;;;;;;;;;;;;26.92;44.02;100887.84;104832;1302;61274;-81
2022/06/29 08:12:45;;;;;;;;;;;;;;;26.92;44.22;100892.71;105049;1301;61411;-81
2022/06/29 08:15:11;;;;;;;;;;;;;;;26.92;43.97;100891.58;105009;1303;61260;-81
2022/06/29 08:17:36;;;;;;;;;;;;;;;26.93;43.80;100895.32;105116;1302;61422;-81
2022/06/29 08:20:03;;;;;;;;;;;;;;;26.93;43.91;100890.79;105033;1302;61269;-81
2022/06/29 08:22:29;;;;;;;;;;;;;;;26.93;43.85;100892.95;105118;1303;61329;-81
2022/06/29 08:24:54;;;;;;;;;;;;;;;26.93;43.56;100890.00;105033;1302;61300;-81
2022/06/29 08:27:21;;;;;;;;;;;;;;;26.95;43.42;100883.59;105006;1302;61310;-81
2022/06/29 08:29:46;;;;;;;;;;;;;;;26.95;43.37;100880.54;104981;1302;73634;-81
2022/06/29 08:32:12;;;;;;;;;;;;;;;26.95;43.74;100879.63;105001;1303;61259;-81
2022/06/29 08:34:40;;;;;;;;;;;;;;;26.95;43.41;100879.94;104934;1303;61361;-81
2022/06/29 08:37:06;;;;;;;;;;;;;;;26.96;43.47;100879.20;104932;1303;61179;-81
2022/06/29 08:39:32;;;;;;;;;;;;;;;26.96;43.38;100879.15;104937;1303;61393;-81
2022/06/29 08:42:00;;;;;;;;;;;;;;;26.97;43.28;100881.83;104932;1303;61249;-81
2022/06/29 08:44:25;;;;;;;;;;;;;;;26.97;43.50;100884.84;104851;1302;61637;-81
2022/06/29 08:46:51;;;;;;;;;;;;;;;26.97;43.45;100881.25;105016;1302;59298;-81
2022/06/29 08:49:16;;;;;;;;;;;;;;;26.97;43.28;100882.65;105190;1302;61265;-81
2022/06/29 08:51:42;;;;;;;;;;;;;;;26.98;43.15;100884.23;105067;1302;61284;-81
2022/06/29 08:54:07;;;;;;;;;;;;;;;26.98;42.70;100876.23;104961;1302;61252;-81
2022/06/29 08:56:34;;;;;;;;;;;;;;;27.01;42.59;100880.70;104984;1303;61166;-81
2022/06/29 08:59:00;;;;;;;;;;;;;;;27.03;42.13;100882.63;105076;1302;61616;-81
2022/06/29 09:01:27;;;;;;;;;;;;;;;27.04;42.20;100884.70;105160;1303;73723;-81
2022/06/29 09:03:53;;;;;;;;;;;;;;;27.04;41.95;100885.35;105105;1303;61156;-81
2022/06/29 09:06:18;;;;;;;;;;;;;;;27.04;42.02;100882.85;105173;1303;61385;-81
2022/06/29 09:08:44;;;;;;;;;;;;;;;27.05;41.87;100885.71;105190;1302;61255;-81
2022/06/29 09:11:22;;;;;;;;;;;;;;;27.07;41.72;100882.44;105075;1301;61359;-81
2022/06/29 09:13:47;;;;;;;;;;;;;;;27.07;41.48;100877.39;105148;1303;74755;-81
2022/06/29 09:16:12;;;;;;;;;;;;;;;27.07;41.91;100876.27;105079;1303;61746;-81
2022/06/29 09:18:38;;;;;;;;;;;;;;;27.06;41.64;100875.16;104856;1302;61287;-81
2022/06/29 09:21:04;;;;;;;;;;;;;;;27.05;41.87;100877.23;104860;1301;60092;-81
2022/06/29 09:23:31;;;;;;;;;;;;;;;27.04;41.70;100872.61;104929;1303;61279;-82
2022/06/29 09:25:56;;;;;;;;;;;;;;;27.04;41.77;100871.90;105051;1303;59265;-81
2022/06/29 09:28:24;;;;;;;;;;;;;;;27.04;41.79;100870.81;105110;1302;61363;-81
2022/06/29 09:30:52;;;;;;;;;;;;;;;27.04;41.68;100869.36;105160;1302;61822;-81
2022/06/29 09:33:19;;;;;;;;;;;;;;;27.03;41.45;100871.25;104936;1302;72814;-81
2022/06/29 09:35:46;;;;;;;;;;;;;;;27.02;41.61;100870.95;105112;1302;74876;-81
2022/06/29 09:38:20;;;;;;;;;;;;;;;27.02;41.56;100867.36;104673;1303;61265;-81
2022/06/29 09:40:59;;;;;;;;;;;;;;;27.02;41.61;100863.95;104892;1301;61408;-81
2022/06/29 09:43:24;;;;;;;;;;;;;;;27.02;41.80;100869.73;104967;1302;72713;-81
2022/06/29 09:45:50;;;;;;;;;;;;;;;27.01;41.91;100865.98;104712;1302;61276;-82
2022/06/29 09:48:15;;;;;;;;;;;;;;;27.02;41.80;100863.40;104923;1301;61811;-81
2022/06/29 09:50:41;;;;;;;;;;;;;;;27.02;41.92;100860.02;104698;1303;61161;-81
2022/06/29 09:53:07;;;;;;;;;;;;;;;27.01;41.82;100855.68;105004;1302;61265;-82
2022/06/29 09:55:34;;;;;;;;;;;;;;;27.02;41.80;100854.23;104658;1302;72726;-82
2022/06/29 09:57:59;;;;;;;;;;;;;;;27.02;42.00;100852.02;104874;1303;61254;-81
2022/06/29 10:03:10;;;;;;;;;;;;;;;27.02;41.85;100854.33;105013;1303;61364;-81
2022/06/29 10:05:54;;;;;;;;;;;;;;;27.02;42.07;100855.45;104936;1303;72794;-81
2022/06/29 10:08:21;;;;;;;;;;;;;;;27.02;42.12;100855.26;104927;1302;74821;-81
2022/06/29 10:10:46;;;;;;;;;;;;;;;27.02;41.76;100853.65;104983;1302;61306;-81
2022/06/29 10:13:39;;;;;;;;;;;;;;;27.01;42.02;100845.21;104943;1303;61285;-81
2022/06/29 10:16:24;;;;;;;;;;;;;;;27.02;42.11;100845.92;104997;1303;73747;-82
2022/06/29 10:19:15;;;;;;;;;;;;;;;27.02;41.82;100841.38;104878;1302;74764;-81
2022/06/29 10:21:41;;;;;;;;;;;;;;;27.02;42.22;100848.95;104659;1302;61397;-82
2022/06/29 10:24:06;;;;;;;;;;;;;;;27.02;42.31;100849.52;104957;1302;61360;-82
2022/06/29 10:26:35;;;;;;;;;;;;;;;27.01;42.07;100843.22;104941;1301;61367;-82
2022/06/29 10:29:10;;;;;;;;;;;;;;;27.01;42.25;100845.76;105294;1301;75155;-82
2022/06/29 10:31:57;;;;;;;;;;;;;;;27.01;42.22;100842.52;105145;1302;61179;-81
2022/06/29 10:34:29;;;;;;;;;;;;;;;27.01;42.24;100848.13;105163;1303;61354;-81
2022/06/29 10:37:01;;;;;;;;;;;;;;;27.01;42.17;100850.46;105158;1302;73611;-81
2022/06/29 10:39:27;;;;;;;;;;;;;;;27.00;42.10;100845.52;105216;1303;74901;-81
2022/06/29 10:44:55;;;;;;;;;;;;;;;27.00;42.30;100840.70;105181;1303;61317;-81
2022/06/29 10:47:21;;;;;;;;;;;;;;;26.99;42.21;100838.56;104977;1303;73786;-81
2022/06/29 10:49:47;;;;;;;;;;;;;;;26.99;42.31;100837.30;105164;1303;61160;-81
2022/06/29 10:52:12;;;;;;;;;;;;;;;26.99;42.29;100834.25;105146;1301;61380;-81
2022/06/29 10:54:38;;;;;;;;;;;;;;;26.98;42.22;100834.13;105091;1303;61250;-81
2022/06/29 10:57:03;;;;;;;;;;;;;;;26.98;42.15;100827.30;105104;1302;61880;-81
2022/06/29 10:59:33;;;;;;;;;;;;;;;26.98;42.18;100822.98;105406;1303;61262;-81
2022/06/29 11:02:11;;;;;;;;;;;;;;;26.98;42.33;100826.20;105543;1301;61272;-81
2022/06/29 11:04:37;;;;;;;;;;;;;;;26.98;42.27;100824.92;104996;1303;62340;-81
2022/06/29 11:12:34;;;;;;;;;;;;;;;26.98;42.43;100824.57;105261;1303;61144;-81
2022/06/29 11:17:45;;;;;;;;;;;;;;;26.98;42.24;100819.73;105075;1301;73071;-81
2022/06/29 11:20:17;;;;;;;;;;;;;;;26.98;42.44;100815.20;105075;1303;61259;-81
2022/06/29 11:22:49;;;;;;;;;;;;;;;26.98;42.18;100807.61;104855;1303;61084;-81
2022/06/29 11:25:15;;;;;;;;;;;;;;;26.98;42.40;100812.48;105109;1302;61390;-81
2022/06/29 11:27:40;;;;;;;;;;;;;;;26.98;42.32;100812.12;105222;1301;61352;-81
2022/06/29 11:30:10;;;;;;;;;;;;;;;26.98;42.35;100806.33;105134;1303;61523;-81
2022/06/29 11:32:37;;;;;;;;;;;;;;;26.98;42.49;100801.88;105287;1302;61196;-81
2022/06/29 11:35:03;;;;;;;;;;;;;;;26.98;42.37;100808.70;105253;1303;61626;-81
2022/06/29 11:37:28;;;;;;;;;;;;;;;26.98;42.22;100807.65;105174;1303;61317;-81
2022/06/29 11:39:54;;;;;;;;;;;;;;;26.98;42.43;100803.11;105218;1303;61291;-81
2022/06/29 11:45:20;;;;;;;;;;;;;;;26.98;42.36;100797.71;105075;1302;61122;-81
2022/06/29 11:47:52;;;;;;;;;;;;;;;26.97;42.16;100791.63;104915;1303;61154;-81
2022/06/29 11:50:18;;;;;;;;;;;;;;;26.98;42.56;100790.31;104939;1302;73746;-81
2022/06/29 11:52:50;;;;;;;;;;;;;;;26.98;42.18;100778.56;105067;1303;60036;-81
2022/06/29 11:55:16;;;;;;;;;;;;;;;26.99;42.38;100775.96;105112;1302;61766;-81
2022/06/29 11:57:42;;;;;;;;;;;;;;;26.98;42.24;100768.04;105092;1303;61358;-81
2022/06/29 12:00:08;;;;;;;;;;;;;;;26.99;42.30;100768.36;105012;1302;61365;-81
2022/06/29 12:02:34;;;;;;;;;;;;;;;27.00;42.44;100760.89;104849;1303;61265;-81
2022/06/29 12:05:03;;;;;;;;;;;;;;;27.00;42.24;100754.69;104887;1302;61254;-81
2022/06/29 12:07:29;;;;;;;;;;;;;;;27.00;42.43;100755.43;105082;1303;73760;-81
2022/06/29 12:09:54;;;;;;;;;;;;;;;27.00;42.24;100753.91;105248;1301;61240;-81
2022/06/29 12:12:20;;;;;;;;;;;;;;;27.01;42.26;100749.35;105233;1303;63031;-81
2022/06/29 12:14:46;;;;;;;;;;;;;;;27.01;42.41;100749.17;105198;1302;61315;-81
2022/06/29 12:17:13;;;;;;;;;;;;;;;27.01;42.43;100743.52;105047;1303;61272;-81
2022/06/29 12:19:38;;;;;;;;;;;;;;;27.02;42.38;100744.00;105207;1302;61268;-81
2022/06/29 12:22:04;;;;;;;;;;;;;;;27.02;42.43;100744.02;105157;1303;61998;-81
2022/06/29 12:24:30;;;;;;;;;;;;;;;27.02;42.40;100733.85;105306;1302;61355;-81
2022/06/29 12:26:55;;;;;;;;;;;;;;;27.03;42.45;100732.77;105232;1301;61151;-81
2022/06/29 12:29:21;;;;;;;;;;;;;;;27.03;42.38;100732.00;105205;1301;61402;-81
2022/06/29 12:31:46;;;;;;;;;;;;;;;27.03;42.24;100726.05;105259;1303;61358;-81
2022/06/29 12:34:14;;;;;;;;;;;;;;;27.03;42.28;100723.33;105271;1303;61454;-81
2022/06/29 12:36:39;;;;;;;;;;;;;;;27.03;42.54;100723.65;105268;1303;61260;-81
2022/06/29 12:39:05;;;;;;;;;;;;;;;27.04;42.39;100718.90;105241;1301;61275;-81
2022/06/29 12:41:32;;;;;;;;;;;;;;;27.04;42.37;100720.17;105271;1303;61244;-81
2022/06/29 12:43:59;;;;;;;;;;;;;;;27.04;42.50;100714.70;105209;1303;61287;-83
2022/06/29 12:46:27;;;;;;;;;;;;;;;27.05;42.42;100711.95;105273;1303;61176;-84